• Join FlightAware (Why Join?)
  • Login
  • US Flag 
11:16AM EDT


 

Airport Tracker/Info


-or-


 

Live Flight TrackerFlight Track Log ✈ ACA450 ✈ 24-Apr-2012 ✈ CYYZ - CYOW

Flight Track Log - Related Links

Times and Time Zones

All times are in EDT time to prevent confusion due to time zone crossing. See the ACA450 flight status page for this flight to view local times or setup timezone preferences in your user account.

Time Position Orientation Groundspeed Altitude Reporting Facility
EDT Latitude Longitude Course Direction KTS MPH feet Rate Location/Type
12:28PM 43.6904 -79.6002 222° Southwest  Level FlightAware Approximate
12:29PM 43.6500 -79.6500 180° South 140 161 3,400  Level Toronto Center
12:30PM 43.6167 -79.6500 90° East 200 230 5,800 2,580 Climbing Toronto Center
12:31PM 43.6167 -79.5667 79° East 280 322 8,600 3,000 Climbing Toronto Center
12:32PM 43.6333 -79.4500 80° East 310 357 11,900 2,640 Climbing Toronto Center
12:33PM 43.6500 -79.3167 74° East 390 449 13,900 2,400 Climbing Toronto Center
12:34PM 43.6833 -79.1500 74° East 420 483 16,700 3,180 Climbing Toronto Center
12:35PM 43.7167 -78.9833 73° East 440 506 20,300 3,060 Climbing Toronto Center
12:36PM 43.7500 -78.8333 67° East 450 518 22,900 2,400 Climbing Toronto Center
12:37PM 43.8000 -78.6667 67° East 460 529 25,100 2,040 Climbing Toronto Center
12:38PM 43.8500 -78.5000 67° East 460 529 27,000 900 Climbing Toronto Center
12:39PM 43.9000 -78.3333 67° East 460 529 27,000  Level Toronto Center
12:40PM 43.9500 -78.1667 58° Northeast 460 529 27,000  Level Toronto Center
12:41PM 44.0167 -78.0167 67° East 470 541 27,000  Level Toronto Center
12:42PM 44.0667 -77.8500 61° Northeast 470 541 27,000  Level Toronto Center
12:43PM 44.1333 -77.6833 67° East 470 541 27,000  Level Toronto Center
12:44PM 44.1833 -77.5167 52° Northeast 470 541 27,000  Level Toronto Center
12:45PM 44.2667 -77.3667 30° Northeast 470 541 27,000  Level Toronto Center
12:45PM 44.3500 -77.3000 40° Northeast 460 529 27,000  Level Montreal Center
12:46PM 44.4500 -77.1833 40° Northeast 470 541 27,000 -900 Level Montreal Center
12:47PM 44.5500 -77.0667 45° Northeast 470 541 25,200 -2,040 Descending Montreal Center
12:48PM 44.6333 -76.9500 55° Northeast 450 518 23,000 -2,040 Descending Montreal Center
12:49PM 44.7000 -76.8167 49° Northeast 440 506 21,200 -1,920 Descending Montreal Center
12:50PM 44.7833 -76.6833 51° Northeast 430 495 19,200 -1,980 Descending Montreal Center
12:51PM 44.8500 -76.5667 58° Northeast 420 483 17,300 -1,800 Descending Montreal Center
12:52PM 44.9167 -76.4167 59° Northeast 410 472 15,700 -1,680 Descending Montreal Center
12:53PM 44.9667 -76.3000 45° Northeast 400 460 14,000 -1,800 Descending Montreal Center
12:54PM 45.0500 -76.1833 59° Northeast 390 449 12,200 -1,500 Descending Montreal Center
12:55PM 45.1000 -76.0667 55° Northeast 370 426 11,000 -1,140 Descending Montreal Center
12:56PM 45.1500 -75.9667 68° East 330 380 10,000 -1,500 Descending Montreal Center
12:57PM 45.1833 -75.8500 103° East 300 345 8,100 -1,020 Descending Montreal Center
12:58PM 45.1667 -75.7500 50° Northeast 280 322 8,000 -60 Descending Montreal Center
12:59PM 45.2167 -75.6667 65° Northeast 300 345 8,000 -120 Level Montreal Center
01:00PM 45.2500 -75.5667 55° Northeast 280 322 7,800 -780 Descending Montreal Center
01:01PM 45.3000 -75.4667 55° Northeast 250 288 6,500 -900 Descending Montreal Center
01:02PM 45.3333 -75.4000 60° Northeast 250 288 6,100 -300 Descending Montreal Center
01:03PM 45.3667 -75.3167 13° North 240 276 6,000 -360 Descending Montreal Center
01:04PM 45.4167 -75.3000 270° West 240 276 5,400 -1,020 Descending Montreal Center
01:05PM 45.4167 -75.3667 245° Southwest 190 219 4,000 -1,200 Descending Montreal Center
01:06PM 45.4000 -75.4167 250° West 170 196 3,000 -1,140 Descending Montreal Center
01:07PM 45.3833 -75.4833 227° Southwest 160 184 1,800 -600 Descending Montreal Center
01:08PM 45.3500 -75.5333 227° Southwest 160 184 1,800  Level Montreal Center